Terminal Aerodrome Forecast
Issued by NWS

Home | Current Version | Previous Version | Text Only | Print | Product List | Glossary On
Versions: 1 2 3 4 5 6 7 8 9 10 11 12 13 14 15 16
000
FTUS45 KABQ 301724
TAFFMN
TAF
KFMN 301724Z 3018/3118 23009KT P6SM BKN200
     FM302100 23015G25KT P6SM SCT100 BKN200
     FM310200 20010KT P6SM SCT100 SCT200
     FM310800 12011KT P6SM SCT080
     FM311600 14008KT P6SM VCSH SCT050 BKN090=

USA.gov is the U.S. government's official web portal to all federal, state and local government web resources and services.